Time;durP1;ratioP1;P1;durP2;ratioP2;P2;SDS_P1;SDS_P2;PMS_P1;PMS_P2;Temp;Humidity;BMP_temperature;BMP_pressure;BME280_temperature;BME280_humidity;BME280_pressure;Samples;Min_cycle;Max_cycle;Signal;HPM_P1;HPM_P2
2023/02/17 00:00:10;;;;;;;;;18.50;16.00;;;;;13.24;65.76;102463.69;2026464;27;2821072;-74
2023/02/17 00:01:24;;;;;;;;;25.00;18.50;;;;;13.24;65.98;102461.06;2024738;28;2837758;-74
2023/02/17 00:02:36;;;;;;;;;18.33;16.00;;;;;13.24;65.58;102461.06;1998438;28;2817007;-74
2023/02/17 00:03:49;;;;;;;;;15.67;14.33;;;;;13.24;66.05;102461.06;2018467;28;3534620;-74
2023/02/17 00:05:00;;;;;;;;;16.33;15.00;;;;;13.25;65.34;102457.53;2023680;28;3533567;-74
2023/02/17 00:06:12;;;;;;;;;22.67;19.00;;;;;13.25;66.00;102465.44;2039013;27;3571097;-74
2023/02/17 00:07:24;;;;;;;;;18.67;16.67;;;;;13.26;65.85;102456.63;2024455;27;2823178;-74
2023/02/17 00:08:35;;;;;;;;;17.50;17.50;;;;;13.26;65.66;102458.41;2025950;27;2824229;-74
2023/02/17 00:09:46;;;;;;;;;22.67;16.67;;;;;13.26;65.89;102453.97;2001070;27;3563818;-74
2023/02/17 00:10:59;;;;;;;;;18.40;16.80;;;;;13.26;65.79;102461.91;2045021;28;3547064;-74
2023/02/17 00:12:10;;;;;;;;;19.00;16.67;;;;;13.26;66.27;102459.25;2022589;27;3559591;-74
2023/02/17 00:13:23;;;;;;;;;20.33;15.67;;;;;13.26;66.25;102461.91;2047012;27;3570035;-74
2023/02/17 00:14:34;;;;;;;;;17.33;15.33;;;;;13.27;66.02;102462.78;2032250;27;3555485;-74
2023/02/17 00:15:46;;;;;;;;;17.33;16.33;;;;;13.26;65.75;102459.25;2038968;27;3557578;-74
2023/02/17 00:16:57;;;;;;;;;17.50;12.00;;;;;13.26;66.36;102456.63;2039737;27;2820053;-74
2023/02/17 00:18:09;;;;;;;;;21.60;16.60;;;;;13.26;65.90;102459.25;2020899;28;2819041;-74
2023/02/17 00:19:22;;;;;;;;;16.50;14.00;;;;;13.25;66.18;102449.59;2025685;28;2800218;-74
2023/02/17 00:20:33;;;;;;;;;20.00;14.00;;;;;13.26;66.46;102451.34;2002130;28;2812747;-74
2023/02/17 00:21:44;;;;;;;;;17.00;14.00;;;;;13.26;66.03;102455.78;2011872;28;2801312;-74
2023/02/17 00:22:56;;;;;;;;;18.67;17.33;;;;;13.26;66.29;102450.50;2018180;27;2818106;-74
2023/02/17 00:24:07;;;;;;;;;16.50;15.00;;;;;13.27;66.23;102450.44;2027952;28;2807514;-74
2023/02/17 00:25:18;;;;;;;;;18.00;12.00;;;;;13.27;66.06;102446.94;2000113;28;2820122;-74
2023/02/17 00:26:31;;;;;;;;;18.00;15.83;;;;;13.27;66.13;102455.72;2046429;28;1826332;-75
2023/02/17 00:27:43;;;;;;;;;19.00;17.33;;;;;13.27;66.09;102458.38;1999887;28;3553385;-75
2023/02/17 00:28:56;;;;;;;;;18.80;15.40;;;;;13.28;66.44;102453.97;2051507;27;1840406;-74
2023/02/17 00:30:08;;;;;;;;;17.33;15.33;;;;;13.28;66.51;102454.81;2022228;28;3540869;-74
2023/02/17 00:31:21;;;;;;;;;15.00;14.00;;;;;13.28;66.42;102451.31;2030539;28;2819023;-75
2023/02/17 00:32:32;;;;;;;;;15.50;14.00;;;;;13.28;66.37;102449.53;2000803;28;2804453;-75
2023/02/17 00:33:43;;;;;;;;;13.00;12.50;;;;;13.28;66.36;102454.81;2009207;28;2800238;-75
2023/02/17 00:34:57;;;;;;;;;16.33;16.33;;;;;13.27;66.46;102455.72;2008828;28;2813913;-75
2023/02/17 00:36:16;;;;;;;;;24.00;16.00;;;;;13.28;66.59;102460.09;2016029;28;3562740;-74
2023/02/17 00:37:27;;;;;;;;;18.50;14.00;;;;;13.28;66.44;102451.31;2016146;28;2808599;-74
2023/02/17 00:38:38;;;;;;;;;15.00;15.00;;;;;13.29;66.35;102455.69;2017765;28;2805423;-74
2023/02/17 00:39:50;;;;;;;;;19.67;15.67;;;;;13.28;66.62;102449.53;1995591;27;2811802;-74
2023/02/17 00:41:01;;;;;;;;;18.00;16.33;;;;;13.29;66.70;102450.41;2015736;28;3550229;-74
2023/02/17 00:42:13;;;;;;;;;19.60;17.40;;;;;13.28;66.57;102449.53;2038063;27;3547084;-75
2023/02/17 00:43:25;;;;;;;;;18.67;16.33;;;;;13.29;66.39;102450.41;2040262;27;2814420;-74
2023/02/17 00:44:35;;;;;;;;;18.00;16.50;;;;;13.30;66.79;102446.88;2017033;28;2812801;-74
2023/02/17 00:45:47;;;;;;;;;17.00;16.00;;;;;13.31;66.34;102445.13;2033279;28;3547105;-74
2023/02/17 00:46:59;;;;;;;;;15.00;12.60;;;;;13.30;66.50;102452.16;2048095;28;1822201;-74
2023/02/17 00:48:10;;;;;;;;;15.00;14.50;;;;;13.31;66.51;102453.03;2026138;27;2805486;-74
2023/02/17 00:49:25;;;;;;;;;20.67;16.33;;;;;13.31;66.69;102443.31;2057099;27;2815925;-74
2023/02/17 00:50:37;;;;;;;;;19.67;16.67;;;;;13.30;66.85;102444.25;1999630;28;3554395;-74
2023/02/17 00:51:50;;;;;;;;;21.00;16.80;;;;;13.32;66.85;102441.56;2045723;28;3549494;-74
2023/02/17 00:53:01;;;;;;;;;17.67;15.67;;;;;13.31;66.69;102440.69;2021878;28;3548160;-74
2023/02/17 00:54:14;;;;;;;;;20.67;16.67;;;;;13.32;66.93;102450.38;2039174;28;3552339;-74
2023/02/17 00:55:25;;;;;;;;;21.67;13.67;;;;;13.32;66.60;102441.56;2023224;28;3564874;-74
2023/02/17 00:56:38;;;;;;;;;20.20;16.40;;;;;13.33;66.83;102435.41;2043344;28;3547172;-74
2023/02/17 00:57:48;;;;;;;;;4.67;4.67;;;;;13.32;66.74;102433.66;2031948;27;3465871;-74
2023/02/17 00:58:59;;;;;;;;;15.50;12.00;;;;;13.31;66.86;102442.47;2044755;27;2794020;-74
2023/02/17 01:00:12;;;;;;;;;17.67;16.33;;;;;13.30;66.86;102431.03;2040478;28;2821083;-74
2023/02/17 01:01:23;;;;;;;;;17.67;12.67;;;;;13.29;66.61;102439.84;2023301;28;2803493;-74
2023/02/17 01:02:36;;;;;;;;;18.33;13.67;;;;;13.30;66.88;102446.00;2054891;27;1825309;-74
2023/02/17 01:03:47;;;;;;;;;13.50;13.00;;;;;13.28;66.81;102433.69;1999149;27;2797532;-74
2023/02/17 01:04:58;;;;;;;;;16.50;15.50;;;;;13.28;66.85;102438.97;2015734;28;2813769;-74
2023/02/17 01:06:15;;;;;;;;;12.00;10.50;;;;;13.28;66.89;102438.97;2027715;28;1820097;-74
2023/02/17 01:07:26;;;;;;;;;18.50;15.50;;;;;13.29;66.99;102439.84;1999637;28;2812791;-74
2023/02/17 01:08:37;;;;;;;;;15.67;15.67;;;;;13.28;66.93;102435.47;2038479;27;2806517;-74
2023/02/17 01:09:49;;;;;;;;;16.33;14.00;;;;;13.29;67.16;102445.13;2022843;27;3541892;-74
2023/02/17 01:11:00;;;;;;;;;15.50;13.00;;;;;13.27;67.19;102439.00;2040179;28;2814209;-74
2023/02/17 01:12:11;;;;;;;;;17.00;12.00;;;;;13.26;66.93;102438.13;2013362;27;2799178;-74
2023/02/17 01:13:23;;;;;;;;;16.00;14.20;;;;;13.27;67.17;102436.38;2032598;28;3543928;-74
2023/02/17 01:14:34;;;;;;;;;21.50;14.00;;;;;13.27;67.27;102431.97;2039738;28;2817982;-74
2023/02/17 01:15:54;;;;;;;;;18.00;14.50;;;;;13.26;67.24;102448.69;2015563;27;2808624;-74
2023/02/17 01:17:05;;;;;;;;;16.00;14.00;;;;;13.26;67.32;102438.13;2000913;28;3535662;-74
2023/02/17 01:18:18;;;;;;;;;16.50;16.00;;;;;13.26;67.18;102439.94;2036610;27;2810011;-74
2023/02/17 01:19:29;;;;;;;;;15.33;14.00;;;;;13.26;67.67;102437.28;2000325;28;2809684;-74
2023/02/17 01:20:42;;;;;;;;;13.83;13.67;;;;;13.24;67.63;102437.28;2046479;28;1821179;-74
2023/02/17 01:21:53;;;;;;;;;11.00;9.33;;;;;13.25;67.37;102439.03;2016816;28;1826307;-74
2023/02/17 01:23:05;;;;;;;;;22.50;16.00;;;;;13.25;67.45;102432.88;2015676;28;2830489;-74
2023/02/17 01:24:16;;;;;;;;;15.50;12.00;;;;;13.24;67.94;102429.38;2000861;28;2794041;-74
2023/02/17 01:25:28;;;;;;;;;14.67;12.67;;;;;13.25;67.93;102436.41;2017462;27;2802318;-74
2023/02/17 01:26:40;;;;;;;;;18.67;16.33;;;;;13.25;67.83;102433.75;2021628;28;2821087;-74
2023/02/17 01:27:53;;;;;;;;;16.00;10.50;;;;;13.25;67.71;102438.16;2060708;27;1824300;-74
2023/02/17 01:29:07;;;;;;;;;14.17;14.17;;;;;13.24;67.56;102439.94;2038746;27;1826351;-74
2023/02/17 01:30:19;;;;;;;;;12.40;10.00;;;;;13.24;67.69;102429.38;2014755;27;2783565;-74
2023/02/17 01:31:32;;;;;;;;;15.80;15.40;;;;;13.25;67.91;102433.75;2018609;28;3543947;-74
2023/02/17 01:32:44;;;;;;;;;17.80;15.20;;;;;13.23;67.84;102430.28;2040879;28;2796133;-74
2023/02/17 01:33:59;;;;;;;;;17.00;14.00;;;;;13.24;67.85;102437.28;2015896;28;2804418;-74
2023/02/17 01:35:12;;;;;;;;;13.50;10.67;;;;;13.24;67.55;102434.66;2031922;27;1833655;-74
2023/02/17 01:36:23;;;;;;;;;15.00;13.50;;;;;13.24;67.83;102432.00;1994838;28;2797125;-74
2023/02/17 01:37:35;;;;;;;;;17.33;13.33;;;;;13.24;67.94;102441.69;1994766;28;2813929;-74
2023/02/17 01:38:46;;;;;;;;;14.50;13.00;;;;;13.23;67.93;102432.03;2021907;27;2802398;-74
2023/02/17 01:39:57;;;;;;;;;17.67;15.33;;;;;13.24;68.03;102437.28;1999915;27;2813200;-74
2023/02/17 01:41:10;;;;;;;;;16.67;15.33;;;;;13.24;68.10;102433.78;2023568;27;3560723;-74
2023/02/17 01:42:23;;;;;;;;;18.00;14.33;;;;;13.23;68.20;102430.28;2053076;27;1818522;-74
2023/02/17 01:43:35;;;;;;;;;15.50;13.50;;;;;13.24;68.24;102428.50;2001163;28;2810039;-74
2023/02/17 01:45:16;;;;;;;;;16.00;13.00;;;;;13.24;68.10;102421.44;1998222;28;2798180;-74
2023/02/17 01:46:27;;;;;;;;;14.50;12.00;;;;;13.24;67.81;102429.38;1997798;28;2795812;-74
2023/02/17 01:47:39;;;;;;;;;14.67;14.00;;;;;13.25;67.94;102423.19;2012294;28;2812832;-74
2023/02/17 01:48:50;;;;;;;;;16.67;14.00;;;;;13.26;67.94;102424.09;2021472;28;2811807;-74
2023/02/17 01:50:02;;;;;;;;;17.00;14.00;;;;;13.26;67.99;102429.38;2015780;28;3548149;-74
2023/02/17 01:51:25;;;;;;;;;17.00;14.67;;;;;13.26;67.96;102430.22;2027013;28;2823175;-74
2023/02/17 01:52:39;;;;;;;;;16.60;15.20;;;;;13.27;68.24;102428.44;2039367;28;2812734;-74
2023/02/17 01:54:04;;;;;;;;;14.00;14.00;;;;;13.26;68.02;102424.94;1998091;28;2807553;-74
2023/02/17 01:55:18;;;;;;;;;18.00;16.50;;;;;13.26;68.33;102419.66;2000994;27;2828391;-74
2023/02/17 01:56:32;;;;;;;;;16.00;16.00;;;;;13.28;68.25;102411.72;2000780;27;2815884;-74
2023/02/17 01:57:44;;;;;;;;;14.67;13.67;;;;;13.27;67.98;102426.69;2000911;27;3536731;-74
2023/02/17 01:59:01;;;;;;;;;13.60;12.80;;;;;13.28;68.12;102423.13;2043321;28;2792287;-74
2023/02/17 02:00:17;;;;;;;;;17.50;15.00;;;;;13.28;68.17;102423.13;2029217;28;1833630;-74
2023/02/17 02:01:29;;;;;;;;;17.50;15.00;;;;;13.29;68.23;102426.66;2002666;27;2824240;-74
2023/02/17 02:02:45;;;;;;;;;17.50;12.17;;;;;13.27;68.36;102418.75;2029597;27;1823223;-74
2023/02/17 02:03:59;;;;;;;;;22.50;12.00;;;;;13.28;68.08;102414.34;1995814;28;2831515;-74
2023/02/17 02:05:10;;;;;;;;;19.00;16.50;;;;;13.28;68.40;102422.28;2000739;27;2820053;-74
2023/02/17 02:06:25;;;;;;;;;14.50;14.50;;;;;13.27;68.33;102410.84;2000015;27;2797134;-74
2023/02/17 02:07:40;;;;;;;;;18.67;16.33;;;;;13.28;68.24;102412.56;1999064;28;2824235;-74
2023/02/17 02:09:00;;;;;;;;;13.50;12.00;;;;;13.28;68.37;102411.72;2022761;28;2787748;-74
2023/02/17 02:10:13;;;;;;;;;9.50;9.50;;;;;13.28;68.35;102412.56;2002356;27;2758642;-74
2023/02/17 02:11:24;;;;;;;;;18.00;13.50;;;;;13.28;68.19;102414.34;2022831;28;2800258;-74
2023/02/17 02:12:37;;;;;;;;;14.50;12.00;;;;;13.27;68.61;102410.84;2014153;28;2786698;-74
2023/02/17 02:13:52;;;;;;;;;15.00;13.86;;;;;13.26;68.46;102411.72;2023520;28;1825300;-74
2023/02/17 02:15:10;;;;;;;;;15.50;14.00;;;;;13.26;68.73;102406.44;2024757;28;2808636;-74
2023/02/17 02:16:29;;;;;;;;;18.50;12.00;;;;;13.26;68.55;102410.88;2023446;27;2800310;-74
2023/02/17 02:18:07;;;;;;;;;19.67;16.33;;;;;13.26;68.01;102406.44;1998855;28;2806574;-74
2023/02/17 02:19:44;;;;;;;;;19.00;14.00;;;;;13.25;68.64;102407.34;2015344;28;2816010;-74
2023/02/17 02:21:26;;;;;;;;;13.00;11.50;;;;;13.25;68.98;102406.47;2018905;28;2785307;-74
2023/02/17 02:22:49;;;;;;;;;16.00;15.00;;;;;13.24;68.52;102410.00;1998561;27;2807633;-74
2023/02/17 02:24:17;;;;;;;;;18.00;15.00;;;;;13.24;68.59;102410.00;2000300;27;2805478;-74
2023/02/17 02:25:53;;;;;;;;;14.50;14.50;;;;;13.24;68.47;102408.25;2016651;28;2816925;-74
2023/02/17 02:27:09;;;;;;;;;15.00;14.00;;;;;13.24;68.75;102415.28;1996203;28;2793003;-74
2023/02/17 02:28:53;;;;;;;;;15.33;13.83;;;;;13.24;68.76;102408.25;2052463;28;1837859;-74
2023/02/17 02:30:31;;;;;;;;;13.67;13.67;;;;;13.24;68.72;102421.44;2029066;28;1839932;-74
2023/02/17 02:32:01;;;;;;;;;15.33;14.33;;;;;13.24;68.80;102416.16;1994703;27;3542933;-74
2023/02/17 02:33:42;;;;;;;;;14.33;14.00;;;;;13.24;68.69;102415.28;2014602;28;2812988;-74
2023/02/17 02:35:03;;;;;;;;;17.80;15.60;;;;;13.24;68.51;102413.53;2038043;28;2816244;-74
2023/02/17 02:36:25;;;;;;;;;17.33;15.00;;;;;13.25;69.12;102417.03;2000653;28;2823285;-75
2023/02/17 02:37:44;;;;;;;;;16.33;15.33;;;;;13.25;68.99;102417.03;2023455;27;2811812;-74
2023/02/17 02:39:13;;;;;;;;;15.00;14.00;;;;;13.25;68.81;102417.91;2021131;27;2804453;-74
2023/02/17 02:40:33;;;;;;;;;6.83;6.67;;;;;13.24;69.05;102415.28;2030672;28;2731507;-74
2023/02/17 02:41:52;;;;;;;;;15.20;14.20;;;;;13.25;69.51;102411.75;2042204;28;2797137;-74
2023/02/17 02:43:04;;;;;;;;;18.00;13.00;;;;;13.24;68.84;102413.53;2004465;28;2811720;-74
2023/02/17 02:44:18;;;;;;;;;14.67;14.33;;;;;13.23;69.12;102414.44;2021619;28;2807680;-74
2023/02/17 02:45:30;;;;;;;;;16.67;16.33;;;;;13.23;69.00;102406.53;2020706;28;3550307;-74
2023/02/17 02:46:42;;;;;;;;;15.60;14.00;;;;;13.23;69.41;102403.88;2036782;28;2797586;-74
2023/02/17 02:47:56;;;;;;;;;19.40;16.00;;;;;13.23;69.30;102400.34;2021170;28;3548145;-74
2023/02/17 02:49:08;;;;;;;;;15.00;12.00;;;;;13.24;69.30;102399.44;2024659;28;2793997;-74
2023/02/17 02:50:44;;;;;;;;;17.00;15.33;;;;;13.22;69.27;102399.47;2023476;27;2826355;-74
2023/02/17 02:52:17;;;;;;;;;18.67;14.00;;;;;13.21;69.24;102400.38;2024611;28;2813233;-74
2023/02/17 02:53:31;;;;;;;;;17.00;13.33;;;;;13.22;69.29;102398.59;2023689;28;2805473;-74
2023/02/17 02:55:01;;;;;;;;;16.00;13.67;;;;;13.21;69.26;102412.72;2024217;28;2813919;-74
2023/02/17 02:56:42;;;;;;;;;16.67;14.33;;;;;13.22;69.20;102395.97;2024556;28;2825261;-74
2023/02/17 02:58:09;;;;;;;;;18.67;16.00;;;;;13.22;69.33;102396.84;2024781;27;3550241;-74
2023/02/17 02:59:47;;;;;;;;;16.50;16.00;;;;;13.22;69.20;102396.84;2024627;27;2809733;-74
2023/02/17 03:01:18;;;;;;;;;17.00;14.80;;;;;13.22;69.39;102394.19;2014369;28;2816924;-74
2023/02/17 03:02:42;;;;;;;;;17.00;15.00;;;;;13.22;69.16;102402.13;2002205;28;2810715;-74
2023/02/17 03:04:25;;;;;;;;;17.00;14.33;;;;;13.22;69.46;102404.75;2000922;27;2819073;-74
2023/02/17 03:06:02;;;;;;;;;13.50;11.50;;;;;13.22;69.75;102402.13;2020360;28;2789851;-74
2023/02/17 03:07:20;;;;;;;;;15.67;15.67;;;;;13.22;69.24;102407.41;2020075;28;2820050;-74
2023/02/17 03:08:40;;;;;;;;;20.00;16.33;;;;;13.22;69.53;102399.47;2025569;27;2837752;-74
2023/02/17 03:09:54;;;;;;;;;13.00;13.00;;;;;13.22;69.51;102414.44;2023829;28;2782548;-74
2023/02/17 03:11:06;;;;;;;;;16.67;14.00;;;;;13.22;69.53;102404.75;1998119;28;2804517;-74
2023/02/17 03:12:17;;;;;;;;;13.50;12.00;;;;;13.23;69.17;102414.44;2016646;28;2780499;-74
2023/02/17 03:13:32;;;;;;;;;15.00;12.00;;;;;13.21;69.53;102403.00;2000687;27;2796116;-74
2023/02/17 03:14:43;;;;;;;;;13.00;8.50;;;;;13.22;69.64;102412.69;2024551;28;2765893;-74
2023/02/17 03:15:54;;;;;;;;;19.00;16.80;;;;;13.22;69.57;102402.13;2028181;28;2817052;-74
2023/02/17 03:17:06;;;;;;;;;18.00;15.00;;;;;13.21;69.58;102395.09;2023252;28;2809728;-74
2023/02/17 03:18:17;;;;;;;;;17.67;15.33;;;;;13.22;69.77;102402.13;2024050;28;3556499;-74
2023/02/17 03:19:29;;;;;;;;;13.00;12.80;;;;;13.22;69.55;102395.97;2044379;27;3530446;-74
2023/02/17 03:20:50;;;;;;;;;19.67;17.33;;;;;13.22;69.45;102399.47;2036213;28;3554387;-74
2023/02/17 03:22:07;;;;;;;;;16.50;14.17;;;;;13.22;69.34;102394.19;2053105;28;1835739;-74
2023/02/17 03:23:20;;;;;;;;;11.33;11.17;;;;;13.23;69.57;102395.09;2026383;28;1822218;-74
2023/02/17 03:24:33;;;;;;;;;19.67;17.33;;;;;13.22;69.78;102394.19;2001640;28;3560648;-74
2023/02/17 03:25:46;;;;;;;;;14.60;13.40;;;;;13.22;69.53;102396.84;2044069;27;2799194;-74
2023/02/17 03:26:59;;;;;;;;;13.67;9.83;;;;;13.23;69.53;102392.44;2032012;28;1823272;-74
2023/02/17 03:28:14;;;;;;;;;12.83;12.67;;;;;13.22;69.68;102396.84;2032254;28;1827426;-74
2023/02/17 03:29:25;;;;;;;;;16.00;12.67;;;;;13.22;69.93;102391.56;2000488;28;2815886;-74
2023/02/17 03:30:36;;;;;;;;;15.50;14.50;;;;;13.23;70.03;102392.44;2015702;28;2817052;-74
2023/02/17 03:31:50;;;;;;;;;13.00;11.67;;;;;13.20;69.87;102398.66;2030802;28;1819489;-74
2023/02/17 03:33:01;;;;;;;;;15.67;13.67;;;;;13.22;69.95;102398.59;1996752;27;2805495;-74
2023/02/17 03:34:12;;;;;;;;;16.50;13.50;;;;;13.23;69.88;102392.44;2016142;28;2799245;-74
2023/02/17 03:35:23;;;;;;;;;13.50;13.00;;;;;13.23;69.94;102393.31;2011040;28;2801277;-74
2023/02/17 03:36:35;;;;;;;;;20.40;14.80;;;;;13.23;69.86;102397.72;2023072;28;3547072;-75
2023/02/17 03:37:45;;;;;;;;;10.50;9.50;;;;;13.22;70.22;102394.19;2032771;28;2764947;-75
2023/02/17 03:38:57;;;;;;;;;19.67;16.33;;;;;13.23;69.85;102392.44;2048505;27;2818024;-75
2023/02/17 03:40:11;;;;;;;;;13.67;13.67;;;;;13.23;69.86;102393.31;2060811;27;1825370;-75
2023/02/17 03:41:22;;;;;;;;;16.50;14.00;;;;;13.24;69.93;102394.16;2001853;27;2810679;-74
2023/02/17 03:42:35;;;;;;;;;13.67;12.50;;;;;13.24;69.47;102389.75;2028816;27;1825290;-74
2023/02/17 03:43:45;;;;;;;;;17.00;12.00;;;;;13.24;69.81;102384.47;2002869;28;2797134;-74
2023/02/17 03:44:56;;;;;;;;;13.50;11.00;;;;;13.25;70.06;102395.91;2037148;28;2791953;-74
2023/02/17 03:46:13;;;;;;;;;16.60;15.80;;;;;13.24;70.01;102392.41;2019026;28;1827345;-74
2023/02/17 03:47:23;;;;;;;;;14.50;13.00;;;;;13.24;69.87;102392.41;2021237;28;2803395;-74
2023/02/17 03:48:35;;;;;;;;;17.00;14.33;;;;;13.24;70.04;102389.75;2017583;28;3540814;-74
2023/02/17 03:49:46;;;;;;;;;13.00;11.50;;;;;13.25;70.00;102388.00;2038641;28;2788817;-74
2023/02/17 03:50:57;;;;;;;;;22.00;16.00;;;;;13.25;69.86;102393.28;2008980;28;2827338;-74
2023/02/17 03:52:09;;;;;;;;;14.80;14.60;;;;;13.24;69.71;102389.75;2026742;28;1833608;-74
2023/02/17 03:53:23;;;;;;;;;15.50;14.33;;;;;13.26;69.84;102402.97;2047148;28;1821132;-74
2023/02/17 03:54:33;;;;;;;;;14.50;14.00;;;;;13.25;70.20;102395.91;1994149;28;2794021;-74
2023/02/17 03:55:45;;;;;;;;;14.20;14.20;;;;;13.26;70.04;102398.53;2027518;28;1829451;-74
2023/02/17 03:56:56;;;;;;;;;18.00;13.00;;;;;13.25;70.07;102402.06;2023289;27;2801285;-74
2023/02/17 03:58:07;;;;;;;;;19.33;14.33;;;;;13.26;70.02;102395.03;2016814;28;2815258;-74
2023/02/17 03:59:18;;;;;;;;;12.50;12.00;;;;;13.25;70.35;102407.34;2022764;28;2791934;-74
2023/02/17 04:00:29;;;;;;;;;21.50;14.00;;;;;13.24;70.70;102399.44;2010890;28;2813801;-74
2023/02/17 04:01:42;;;;;;;;;7.60;5.80;;;;;13.22;70.34;102410.03;2021588;28;2720109;-74
2023/02/17 04:02:52;;;;;;;;;18.00;15.00;;;;;13.22;70.45;102404.75;1999899;28;2807581;-74
2023/02/17 04:04:03;;;;;;;;;13.00;11.00;;;;;13.22;70.04;102414.44;2016589;27;2784623;-74
2023/02/17 04:05:15;;;;;;;;;15.67;13.67;;;;;13.22;69.80;102412.69;2040893;28;2823282;-74
2023/02/17 04:06:26;;;;;;;;;16.50;15.00;;;;;13.23;70.56;102410.91;2024282;27;2814181;-74
2023/02/17 04:07:37;;;;;;;;;10.00;10.00;;;;;13.22;70.37;102410.03;2008953;28;2786694;-74
2023/02/17 04:08:49;;;;;;;;;12.80;12.80;;;;;13.23;70.56;102414.44;2036978;28;3527301;-74
2023/02/17 04:10:00;;;;;;;;;12.25;12.25;;;;;13.23;70.32;102409.16;2050784;28;1824258;-74
2023/02/17 04:11:12;;;;;;;;;14.00;14.00;;;;;13.23;70.08;102417.09;2012059;28;2802302;-74
2023/02/17 04:12:23;;;;;;;;;12.00;11.00;;;;;13.23;70.39;102417.09;2002305;28;2788810;-74
2023/02/17 04:13:35;;;;;;;;;13.00;12.00;;;;;13.25;70.48;102419.69;2032249;28;2796060;-74
2023/02/17 04:14:48;;;;;;;;;15.50;12.00;;;;;13.26;70.42;102408.25;2052775;28;1824270;-74
2023/02/17 04:16:03;;;;;;;;;13.33;10.83;;;;;13.25;70.73;102417.91;2033070;27;1823215;-74
2023/02/17 04:17:13;;;;;;;;;14.00;12.00;;;;;13.25;70.46;102422.31;1994099;27;2787784;-74
2023/02/17 04:18:27;;;;;;;;;14.00;12.67;;;;;13.26;70.35;102424.94;2054261;28;2791890;-74
2023/02/17 04:19:37;;;;;;;;;14.50;11.00;;;;;13.26;70.50;102419.66;2004242;28;2791907;-74
2023/02/17 04:20:50;;;;;;;;;12.50;11.00;;;;;13.25;70.45;102417.91;2030046;28;1825873;-74
2023/02/17 04:22:00;;;;;;;;;15.50;14.00;;;;;13.26;70.34;102417.00;1993975;28;2794359;-74
2023/02/17 04:23:13;;;;;;;;;17.60;13.20;;;;;13.26;70.45;102419.66;2022316;28;1831524;-74
2023/02/17 04:24:23;;;;;;;;;14.00;11.00;;;;;13.26;70.76;102417.00;2022551;28;2787712;-74
2023/02/17 04:25:36;;;;;;;;;16.00;12.00;;;;;13.26;70.32;102421.44;2015117;28;2799229;-74
2023/02/17 04:26:46;;;;;;;;;14.50;13.50;;;;;13.26;70.56;102419.66;1998768;28;2796084;-74
2023/02/17 04:27:57;;;;;;;;;14.00;12.00;;;;;13.27;70.45;102423.16;2015889;28;2786702;-74
2023/02/17 04:29:08;;;;;;;;;14.50;13.00;;;;;13.27;70.50;102426.69;2032614;28;2807558;-74
2023/02/17 04:30:19;;;;;;;;;11.00;10.00;;;;;13.28;70.42;102422.28;2018081;27;2781490;-75
2023/02/17 04:31:30;;;;;;;;;15.00;12.00;;;;;13.27;70.69;102424.03;2038333;27;2786758;-74
2023/02/17 04:32:41;;;;;;;;;11.50;11.00;;;;;13.28;70.27;102438.13;2041361;27;2777318;-74
2023/02/17 04:33:52;;;;;;;;;9.50;9.50;;;;;13.28;70.79;102431.03;2040018;28;2764855;-74
2023/02/17 04:35:03;;;;;;;;;14.00;12.00;;;;;13.27;70.56;102442.53;2011031;27;2786693;-74
2023/02/17 04:36:15;;;;;;;;;10.25;9.25;;;;;13.29;70.71;102439.84;2023170;28;1836788;-74
2023/02/17 04:37:25;;;;;;;;;10.33;10.33;;;;;13.27;70.82;102437.25;2023869;27;3503348;-74
2023/02/17 04:38:37;;;;;;;;;12.00;11.00;;;;;13.28;70.47;102433.69;2039947;27;2777386;-74
2023/02/17 04:39:47;;;;;;;;;14.00;10.00;;;;;13.28;70.83;102436.31;2024461;27;2788777;-74
2023/02/17 04:40:59;;;;;;;;;16.00;11.00;;;;;13.27;70.78;102431.97;2040649;28;2798182;-74
2023/02/17 04:42:10;;;;;;;;;11.50;11.50;;;;;13.28;70.74;102443.41;2023152;27;2787803;-75
2023/02/17 04:43:22;;;;;;;;;17.00;11.50;;;;;13.27;70.98;102444.28;2028308;27;1815939;-75
2023/02/17 04:44:33;;;;;;;;;14.00;10.00;;;;;13.27;70.87;102445.16;1998698;27;2786113;-74
2023/02/17 04:45:44;;;;;;;;;18.00;12.00;;;;;13.27;70.73;102437.25;2013241;28;2804424;-74
2023/02/17 04:46:55;;;;;;;;;15.50;11.00;;;;;13.27;70.92;102446.94;2008982;28;2791890;-74
2023/02/17 04:48:06;;;;;;;;;14.00;11.00;;;;;13.27;71.02;102442.53;2011773;28;2783608;-74
2023/02/17 04:49:17;;;;;;;;;16.50;14.50;;;;;13.29;70.75;102445.13;2035440;28;2802334;-74
2023/02/17 04:50:28;;;;;;;;;12.00;10.50;;;;;13.28;70.78;102441.59;2016813;28;2788891;-74
2023/02/17 04:51:39;;;;;;;;;11.50;10.50;;;;;13.28;70.83;102436.31;2016445;27;2781510;-74
2023/02/17 04:52:50;;;;;;;;;16.00;10.50;;;;;13.30;70.88;102440.72;2038250;28;2807562;-74
2023/02/17 04:54:01;;;;;;;;;11.50;11.50;;;;;13.30;70.93;102440.72;2037113;28;2780047;-74
2023/02/17 04:55:12;;;;;;;;;9.67;7.67;;;;;13.29;71.05;102445.13;2053795;28;1825305;-74
2023/02/17 04:56:23;;;;;;;;;14.50;14.50;;;;;13.30;70.97;102444.25;2017086;27;2803349;-74
2023/02/17 04:57:34;;;;;;;;;11.50;11.00;;;;;13.30;70.86;102440.72;2016564;28;2781848;-74
2023/02/17 04:58:45;;;;;;;;;13.25;9.75;;;;;13.31;70.72;102450.41;2044409;28;1838900;-74
2023/02/17 04:59:56;;;;;;;;;12.00;9.00;;;;;13.30;71.21;102438.97;2014460;28;2756954;-75
2023/02/17 05:01:07;;;;;;;;;11.00;10.00;;;;;13.31;70.89;102437.19;2039168;28;2777370;-74
2023/02/17 05:02:19;;;;;;;;;14.40;12.40;;;;;13.31;71.11;102442.47;2052218;28;1827386;-74
2023/02/17 05:03:30;;;;;;;;;10.25;8.00;;;;;13.31;70.82;102440.69;2036550;27;1823216;-74
2023/02/17 05:04:40;;;;;;;;;11.00;11.00;;;;;13.31;70.89;102445.13;2022289;28;2787751;-74
2023/02/17 05:05:52;;;;;;;;;12.00;11.50;;;;;13.32;71.04;102449.50;2017396;28;2794048;-74
2023/02/17 05:07:03;;;;;;;;;15.50;11.00;;;;;13.31;71.25;102442.47;2038804;28;2803746;-74
2023/02/17 05:08:14;;;;;;;;;10.00;9.00;;;;;13.32;71.29;102441.56;2007562;28;2766899;-74
2023/02/17 05:09:25;;;;;;;;;14.60;12.20;;;;;13.32;71.11;102444.22;2051110;28;1819040;-74
2023/02/17 05:10:36;;;;;;;;;10.50;10.50;;;;;13.32;71.23;102449.50;2024952;27;2767430;-74
2023/02/17 05:11:47;;;;;;;;;11.75;10.50;;;;;13.31;71.18;102442.47;2052894;27;1825298;-74
2023/02/17 05:12:57;;;;;;;;;14.00;14.00;;;;;13.31;71.23;102453.88;2001460;27;2798219;-74
2023/02/17 05:14:08;;;;;;;;;8.50;8.50;;;;;13.31;71.12;102445.13;2015608;27;2746086;-74
2023/02/17 05:15:19;;;;;;;;;16.50;14.25;;;;;13.31;71.03;102445.13;2052325;28;1831539;-74
2023/02/17 05:16:31;;;;;;;;;12.25;10.75;;;;;13.31;71.06;102450.41;2016166;27;1839852;-74
2023/02/17 05:17:41;;;;;;;;;12.00;11.00;;;;;13.31;71.29;102448.59;2023584;27;2779441;-74
2023/02/17 05:18:52;;;;;;;;;10.50;10.50;;;;;13.31;71.31;102448.59;2015784;27;2772110;-74
2023/02/17 05:20:05;;;;;;;;;15.20;13.60;;;;;13.31;71.18;102447.75;2052549;28;1821677;-74
2023/02/17 05:21:15;;;;;;;;;15.50;11.00;;;;;13.31;71.31;102453.88;2023846;27;2783095;-74
2023/02/17 05:22:26;;;;;;;;;12.00;10.50;;;;;13.32;70.97;102452.13;2041119;28;2780437;-74
2023/02/17 05:23:40;;;;;;;;;11.50;11.00;;;;;13.31;71.15;102447.75;2038946;28;2787764;-74
2023/02/17 05:24:50;;;;;;;;;11.00;10.00;;;;;13.32;71.25;102449.50;2023593;27;2775300;-74
2023/02/17 05:26:01;;;;;;;;;14.00;12.00;;;;;13.32;71.15;102460.94;2017193;27;2790876;-74
2023/02/17 05:27:12;;;;;;;;;15.00;11.50;;;;;13.32;71.39;102460.94;2039412;28;2797146;-74
2023/02/17 05:28:23;;;;;;;;;18.00;10.50;;;;;13.32;71.29;102452.13;2008338;27;2801282;-74
2023/02/17 05:29:34;;;;;;;;;14.00;11.00;;;;;13.32;71.13;102449.50;2044536;28;1823243;-75